sensor_id;sensor_type;location;lat;lon;timestamp;P1;durP1;ratioP1;P2;durP2;ratioP2
1206;SDS011;593;53.184;8.216;2022-07-23T00:00:43;1.63;;;1.00;;
1206;SDS011;593;53.184;8.216;2022-07-23T00:03:09;4.20;;;1.00;;
1206;SDS011;593;53.184;8.216;2022-07-23T00:05:34;1.43;;;1.33;;
1206;SDS011;593;53.184;8.216;2022-07-23T00:08:00;1.93;;;1.10;;
1206;SDS011;593;53.184;8.216;2022-07-23T00:10:25;1.30;;;1.20;;
1206;SDS011;593;53.184;8.216;2022-07-23T00:12:51;2.33;;;1.30;;
1206;SDS011;593;53.184;8.216;2022-07-23T00:15:16;1.73;;;1.20;;
1206;SDS011;593;53.184;8.216;2022-07-23T00:17:41;2.70;;;1.30;;
1206;SDS011;593;53.184;8.216;2022-07-23T00:20:07;4.87;;;1.20;;
1206;SDS011;593;53.184;8.216;2022-07-23T00:22:33;1.87;;;1.20;;
1206;SDS011;593;53.184;8.216;2022-07-23T00:24:58;1.90;;;1.17;;
1206;SDS011;593;53.184;8.216;2022-07-23T00:27:23;1.80;;;1.13;;
1206;SDS011;593;53.184;8.216;2022-07-23T00:29:49;1.17;;;1.07;;
1206;SDS011;593;53.184;8.216;2022-07-23T00:32:14;1.77;;;1.07;;
1206;SDS011;593;53.184;8.216;2022-07-23T00:34:40;1.10;;;1.00;;
1206;SDS011;593;53.184;8.216;2022-07-23T00:37:05;2.80;;;1.43;;
1206;SDS011;593;53.184;8.216;2022-07-23T00:39:30;1.50;;;1.40;;
1206;SDS011;593;53.184;8.216;2022-07-23T00:41:56;1.17;;;1.00;;
1206;SDS011;593;53.184;8.216;2022-07-23T00:44:22;1.33;;;1.10;;
1206;SDS011;593;53.184;8.216;2022-07-23T00:46:50;1.33;;;1.10;;
1206;SDS011;593;53.184;8.216;2022-07-23T00:49:26;1.07;;;0.97;;
1206;SDS011;593;53.184;8.216;2022-07-23T00:51:54;2.13;;;1.43;;
1206;SDS011;593;53.184;8.216;2022-07-23T00:54:22;3.23;;;1.50;;
1206;SDS011;593;53.184;8.216;2022-07-23T00:56:49;1.90;;;1.20;;
1206;SDS011;593;53.184;8.216;2022-07-23T00:59:14;1.93;;;1.00;;
1206;SDS011;593;53.184;8.216;2022-07-23T01:01:40;1.80;;;1.40;;
1206;SDS011;593;53.184;8.216;2022-07-23T01:04:06;5.17;;;1.60;;
1206;SDS011;593;53.184;8.216;2022-07-23T01:06:35;3.80;;;1.50;;
1206;SDS011;593;53.184;8.216;2022-07-23T01:09:02;2.20;;;1.27;;
1206;SDS011;593;53.184;8.216;2022-07-23T01:11:29;1.60;;;1.50;;
1206;SDS011;593;53.184;8.216;2022-07-23T01:13:56;2.50;;;1.40;;
1206;SDS011;593;53.184;8.216;2022-07-23T01:16:21;1.30;;;1.20;;
1206;SDS011;593;53.184;8.216;2022-07-23T01:18:47;1.43;;;1.33;;
1206;SDS011;593;53.184;8.216;2022-07-23T01:21:12;1.20;;;1.10;;
1206;SDS011;593;53.184;8.216;2022-07-23T01:23:38;2.63;;;1.20;;
1206;SDS011;593;53.184;8.216;2022-07-23T01:26:03;2.10;;;1.20;;
1206;SDS011;593;53.184;8.216;2022-07-23T01:28:29;3.47;;;1.50;;
1206;SDS011;593;53.184;8.216;2022-07-23T01:30:54;2.20;;;1.70;;
1206;SDS011;593;53.184;8.216;2022-07-23T01:33:19;1.23;;;1.13;;
1206;SDS011;593;53.184;8.216;2022-07-23T01:35:45;1.40;;;1.03;;
1206;SDS011;593;53.184;8.216;2022-07-23T01:38:10;1.30;;;1.20;;
1206;SDS011;593;53.184;8.216;2022-07-23T01:40:36;1.30;;;1.20;;
1206;SDS011;593;53.184;8.216;2022-07-23T01:43:01;1.27;;;1.10;;
1206;SDS011;593;53.184;8.216;2022-07-23T01:45:26;1.40;;;1.30;;
1206;SDS011;593;53.184;8.216;2022-07-23T01:47:52;2.13;;;1.40;;
1206;SDS011;593;53.184;8.216;2022-07-23T01:50:17;3.00;;;1.60;;
1206;SDS011;593;53.184;8.216;2022-07-23T01:52:43;1.40;;;1.30;;
1206;SDS011;593;53.184;8.216;2022-07-23T01:55:08;1.50;;;1.40;;
1206;SDS011;593;53.184;8.216;2022-07-23T01:57:34;4.20;;;1.30;;
1206;SDS011;593;53.184;8.216;2022-07-23T01:59:59;3.07;;;1.40;;
1206;SDS011;593;53.184;8.216;2022-07-23T02:02:24;1.70;;;1.60;;
1206;SDS011;593;53.184;8.216;2022-07-23T02:04:50;2.20;;;1.43;;
1206;SDS011;593;53.184;8.216;2022-07-23T02:07:15;1.17;;;1.10;;
1206;SDS011;593;53.184;8.216;2022-07-23T02:09:41;1.80;;;1.57;;
1206;SDS011;593;53.184;8.216;2022-07-23T02:12:07;1.60;;;1.50;;
1206;SDS011;593;53.184;8.216;2022-07-23T02:14:32;1.40;;;1.30;;
1206;SDS011;593;53.184;8.216;2022-07-23T02:16:58;1.20;;;1.10;;
1206;SDS011;593;53.184;8.216;2022-07-23T02:19:23;2.40;;;1.53;;
1206;SDS011;593;53.184;8.216;2022-07-23T02:21:49;1.80;;;1.67;;
1206;SDS011;593;53.184;8.216;2022-07-23T02:24:14;1.60;;;1.50;;
1206;SDS011;593;53.184;8.216;2022-07-23T02:26:40;1.63;;;1.40;;
1206;SDS011;593;53.184;8.216;2022-07-23T02:29:05;2.30;;;1.57;;
1206;SDS011;593;53.184;8.216;2022-07-23T02:31:31;3.20;;;1.90;;
1206;SDS011;593;53.184;8.216;2022-07-23T02:33:56;2.03;;;1.60;;
1206;SDS011;593;53.184;8.216;2022-07-23T02:36:22;3.37;;;1.40;;
1206;SDS011;593;53.184;8.216;2022-07-23T02:38:48;1.77;;;1.60;;
1206;SDS011;593;53.184;8.216;2022-07-23T02:41:13;4.10;;;1.30;;
1206;SDS011;593;53.184;8.216;2022-07-23T02:43:39;1.37;;;1.27;;
1206;SDS011;593;53.184;8.216;2022-07-23T02:46:04;1.30;;;1.20;;
1206;SDS011;593;53.184;8.216;2022-07-23T02:48:30;1.43;;;1.33;;
1206;SDS011;593;53.184;8.216;2022-07-23T02:50:55;3.23;;;1.43;;
1206;SDS011;593;53.184;8.216;2022-07-23T02:53:21;3.00;;;1.60;;
1206;SDS011;593;53.184;8.216;2022-07-23T02:55:47;1.77;;;1.67;;
1206;SDS011;593;53.184;8.216;2022-07-23T02:58:12;2.73;;;1.60;;
1206;SDS011;593;53.184;8.216;2022-07-23T03:00:38;2.37;;;1.83;;
1206;SDS011;593;53.184;8.216;2022-07-23T03:03:03;3.70;;;2.23;;
1206;SDS011;593;53.184;8.216;2022-07-23T03:05:28;2.40;;;1.80;;
1206;SDS011;593;53.184;8.216;2022-07-23T03:07:54;2.47;;;1.60;;
1206;SDS011;593;53.184;8.216;2022-07-23T03:10:19;1.80;;;1.70;;
1206;SDS011;593;53.184;8.216;2022-07-23T03:12:44;1.80;;;1.67;;
1206;SDS011;593;53.184;8.216;2022-07-23T03:15:10;1.97;;;1.67;;
1206;SDS011;593;53.184;8.216;2022-07-23T03:17:35;7.90;;;2.03;;
1206;SDS011;593;53.184;8.216;2022-07-23T03:20:00;1.87;;;1.60;;
1206;SDS011;593;53.184;8.216;2022-07-23T03:22:26;3.00;;;1.93;;
1206;SDS011;593;53.184;8.216;2022-07-23T03:24:51;2.17;;;2.00;;
1206;SDS011;593;53.184;8.216;2022-07-23T03:27:23;1.67;;;1.30;;
1206;SDS011;593;53.184;8.216;2022-07-23T03:29:50;1.60;;;1.47;;
1206;SDS011;593;53.184;8.216;2022-07-23T03:32:16;2.10;;;1.90;;
1206;SDS011;593;53.184;8.216;2022-07-23T03:34:41;2.73;;;2.20;;
1206;SDS011;593;53.184;8.216;2022-07-23T03:37:06;2.77;;;1.87;;
1206;SDS011;593;53.184;8.216;2022-07-23T03:39:32;4.20;;;2.13;;
1206;SDS011;593;53.184;8.216;2022-07-23T03:41:57;2.20;;;1.80;;
1206;SDS011;593;53.184;8.216;2022-07-23T03:44:23;3.23;;;2.17;;
1206;SDS011;593;53.184;8.216;2022-07-23T03:46:48;5.07;;;2.07;;
1206;SDS011;593;53.184;8.216;2022-07-23T03:49:13;2.53;;;1.90;;
1206;SDS011;593;53.184;8.216;2022-07-23T03:51:39;2.00;;;1.90;;
1206;SDS011;593;53.184;8.216;2022-07-23T03:54:04;3.90;;;1.77;;
1206;SDS011;593;53.184;8.216;2022-07-23T03:56:29;1.83;;;1.73;;
1206;SDS011;593;53.184;8.216;2022-07-23T03:58:55;3.43;;;1.90;;
1206;SDS011;593;53.184;8.216;2022-07-23T04:01:20;5.33;;;2.37;;
1206;SDS011;593;53.184;8.216;2022-07-23T04:03:45;2.80;;;1.90;;
1206;SDS011;593;53.184;8.216;2022-07-23T04:06:11;2.30;;;2.10;;
1206;SDS011;593;53.184;8.216;2022-07-23T04:08:37;2.10;;;2.00;;
1206;SDS011;593;53.184;8.216;2022-07-23T04:11:02;2.23;;;2.03;;
1206;SDS011;593;53.184;8.216;2022-07-23T04:13:27;2.40;;;2.00;;
1206;SDS011;593;53.184;8.216;2022-07-23T04:15:53;2.60;;;1.83;;
1206;SDS011;593;53.184;8.216;2022-07-23T04:18:18;2.10;;;1.97;;
1206;SDS011;593;53.184;8.216;2022-07-23T04:20:46;1.80;;;1.70;;
1206;SDS011;593;53.184;8.216;2022-07-23T04:23:11;2.20;;;2.10;;
1206;SDS011;593;53.184;8.216;2022-07-23T04:25:37;2.03;;;1.60;;
1206;SDS011;593;53.184;8.216;2022-07-23T04:28:03;1.90;;;1.80;;
1206;SDS011;593;53.184;8.216;2022-07-23T04:30:28;2.40;;;2.20;;
1206;SDS011;593;53.184;8.216;2022-07-23T04:32:54;2.87;;;2.03;;
1206;SDS011;593;53.184;8.216;2022-07-23T04:35:19;2.20;;;2.10;;
1206;SDS011;593;53.184;8.216;2022-07-23T04:37:45;2.50;;;2.30;;
1206;SDS011;593;53.184;8.216;2022-07-23T04:40:10;1.70;;;1.60;;
1206;SDS011;593;53.184;8.216;2022-07-23T04:42:37;2.20;;;2.00;;
1206;SDS011;593;53.184;8.216;2022-07-23T04:45:02;2.77;;;2.57;;
1206;SDS011;593;53.184;8.216;2022-07-23T04:47:28;2.23;;;1.93;;
1206;SDS011;593;53.184;8.216;2022-07-23T04:49:54;2.10;;;1.90;;
1206;SDS011;593;53.184;8.216;2022-07-23T04:52:19;5.97;;;1.90;;
1206;SDS011;593;53.184;8.216;2022-07-23T04:54:45;2.07;;;1.97;;
1206;SDS011;593;53.184;8.216;2022-07-23T04:57:10;2.60;;;2.40;;
1206;SDS011;593;53.184;8.216;2022-07-23T04:59:35;2.20;;;2.07;;
1206;SDS011;593;53.184;8.216;2022-07-23T05:02:01;2.80;;;2.30;;
1206;SDS011;593;53.184;8.216;2022-07-23T05:04:26;3.93;;;2.43;;
1206;SDS011;593;53.184;8.216;2022-07-23T05:06:51;6.00;;;2.40;;
1206;SDS011;593;53.184;8.216;2022-07-23T05:09:17;2.83;;;2.63;;
1206;SDS011;593;53.184;8.216;2022-07-23T05:11:42;2.93;;;2.27;;
1206;SDS011;593;53.184;8.216;2022-07-23T05:14:07;3.30;;;2.33;;
1206;SDS011;593;53.184;8.216;2022-07-23T05:16:33;2.57;;;2.23;;
1206;SDS011;593;53.184;8.216;2022-07-23T05:18:58;5.70;;;2.33;;
1206;SDS011;593;53.184;8.216;2022-07-23T05:21:23;4.07;;;2.33;;
1206;SDS011;593;53.184;8.216;2022-07-23T05:23:49;2.83;;;2.60;;
1206;SDS011;593;53.184;8.216;2022-07-23T05:26:14;2.77;;;2.57;;
1206;SDS011;593;53.184;8.216;2022-07-23T05:28:39;3.20;;;2.37;;
1206;SDS011;593;53.184;8.216;2022-07-23T05:31:05;2.60;;;2.40;;
1206;SDS011;593;53.184;8.216;2022-07-23T05:33:31;2.73;;;2.53;;
1206;SDS011;593;53.184;8.216;2022-07-23T05:36:02;2.87;;;2.67;;
1206;SDS011;593;53.184;8.216;2022-07-23T05:38:28;3.00;;;2.50;;
1206;SDS011;593;53.184;8.216;2022-07-23T05:40:55;2.30;;;1.97;;
1206;SDS011;593;53.184;8.216;2022-07-23T05:43:20;2.33;;;2.13;;
1206;SDS011;593;53.184;8.216;2022-07-23T05:45:46;5.03;;;2.60;;
1206;SDS011;593;53.184;8.216;2022-07-23T05:48:11;10.00;;;2.30;;
1206;SDS011;593;53.184;8.216;2022-07-23T05:50:36;2.03;;;1.83;;
1206;SDS011;593;53.184;8.216;2022-07-23T05:53:02;2.40;;;2.20;;
1206;SDS011;593;53.184;8.216;2022-07-23T05:55:27;2.27;;;1.90;;
1206;SDS011;593;53.184;8.216;2022-07-23T05:57:56;2.10;;;2.00;;
1206;SDS011;593;53.184;8.216;2022-07-23T06:00:22;2.97;;;2.20;;
1206;SDS011;593;53.184;8.216;2022-07-23T06:02:47;2.40;;;2.20;;
1206;SDS011;593;53.184;8.216;2022-07-23T06:05:13;2.37;;;2.17;;
1206;SDS011;593;53.184;8.216;2022-07-23T06:07:38;2.97;;;1.53;;
1206;SDS011;593;53.184;8.216;2022-07-23T06:10:04;1.63;;;1.33;;
1206;SDS011;593;53.184;8.216;2022-07-23T06:12:30;2.20;;;1.80;;
1206;SDS011;593;53.184;8.216;2022-07-23T06:14:55;2.63;;;1.33;;
1206;SDS011;593;53.184;8.216;2022-07-23T06:17:20;1.50;;;1.00;;
1206;SDS011;593;53.184;8.216;2022-07-23T06:19:46;1.83;;;1.37;;
1206;SDS011;593;53.184;8.216;2022-07-23T06:22:11;1.30;;;1.20;;
1206;SDS011;593;53.184;8.216;2022-07-23T06:24:36;2.10;;;1.37;;
1206;SDS011;593;53.184;8.216;2022-07-23T06:27:02;2.67;;;1.13;;
1206;SDS011;593;53.184;8.216;2022-07-23T06:29:28;2.10;;;1.00;;
1206;SDS011;593;53.184;8.216;2022-07-23T06:31:53;3.23;;;1.67;;
1206;SDS011;593;53.184;8.216;2022-07-23T06:34:19;1.17;;;1.07;;
1206;SDS011;593;53.184;8.216;2022-07-23T06:36:44;1.33;;;1.20;;
1206;SDS011;593;53.184;8.216;2022-07-23T06:39:09;1.23;;;1.13;;
1206;SDS011;593;53.184;8.216;2022-07-23T06:41:35;1.70;;;1.60;;
1206;SDS011;593;53.184;8.216;2022-07-23T06:44:00;1.63;;;1.47;;
1206;SDS011;593;53.184;8.216;2022-07-23T06:46:26;1.97;;;1.47;;
1206;SDS011;593;53.184;8.216;2022-07-23T06:48:51;1.40;;;1.30;;
1206;SDS011;593;53.184;8.216;2022-07-23T06:51:16;1.00;;;0.90;;
1206;SDS011;593;53.184;8.216;2022-07-23T06:53:42;2.97;;;1.10;;
1206;SDS011;593;53.184;8.216;2022-07-23T06:56:07;2.23;;;1.27;;
1206;SDS011;593;53.184;8.216;2022-07-23T06:58:33;1.40;;;1.30;;
1206;SDS011;593;53.184;8.216;2022-07-23T07:00:58;1.40;;;1.30;;
1206;SDS011;593;53.184;8.216;2022-07-23T07:03:23;9.13;;;1.60;;
1206;SDS011;593;53.184;8.216;2022-07-23T07:05:49;1.47;;;1.37;;
1206;SDS011;593;53.184;8.216;2022-07-23T07:08:15;3.53;;;1.27;;
1206;SDS011;593;53.184;8.216;2022-07-23T07:10:41;1.87;;;1.23;;
1206;SDS011;593;53.184;8.216;2022-07-23T07:13:06;2.67;;;1.40;;
1206;SDS011;593;53.184;8.216;2022-07-23T07:15:31;2.50;;;1.23;;
1206;SDS011;593;53.184;8.216;2022-07-23T07:17:56;1.07;;;1.00;;
1206;SDS011;593;53.184;8.216;2022-07-23T07:20:22;1.40;;;1.00;;
1206;SDS011;593;53.184;8.216;2022-07-23T07:22:48;1.20;;;1.10;;
1206;SDS011;593;53.184;8.216;2022-07-23T07:25:14;1.33;;;1.23;;
1206;SDS011;593;53.184;8.216;2022-07-23T07:27:39;3.87;;;2.03;;
1206;SDS011;593;53.184;8.216;2022-07-23T07:30:05;1.33;;;1.23;;
1206;SDS011;593;53.184;8.216;2022-07-23T07:32:31;1.83;;;0.90;;
1206;SDS011;593;53.184;8.216;2022-07-23T07:34:57;3.63;;;1.00;;
1206;SDS011;593;53.184;8.216;2022-07-23T07:37:23;2.70;;;1.03;;
1206;SDS011;593;53.184;8.216;2022-07-23T07:39:48;1.53;;;0.97;;
1206;SDS011;593;53.184;8.216;2022-07-23T07:42:13;1.60;;;1.27;;
1206;SDS011;593;53.184;8.216;2022-07-23T07:44:39;1.73;;;0.90;;
1206;SDS011;593;53.184;8.216;2022-07-23T07:47:04;1.10;;;0.90;;
1206;SDS011;593;53.184;8.216;2022-07-23T07:49:30;1.70;;;1.30;;
1206;SDS011;593;53.184;8.216;2022-07-23T07:51:55;0.80;;;0.80;;
1206;SDS011;593;53.184;8.216;2022-07-23T07:54:20;1.90;;;1.00;;
1206;SDS011;593;53.184;8.216;2022-07-23T07:56:46;1.67;;;1.20;;
1206;SDS011;593;53.184;8.216;2022-07-23T07:59:11;1.67;;;1.20;;
1206;SDS011;593;53.184;8.216;2022-07-23T08:01:36;1.83;;;0.87;;
1206;SDS011;593;53.184;8.216;2022-07-23T08:04:02;1.13;;;0.90;;
1206;SDS011;593;53.184;8.216;2022-07-23T08:06:27;1.97;;;1.60;;
1206;SDS011;593;53.184;8.216;2022-07-23T08:08:53;1.17;;;1.07;;
1206;SDS011;593;53.184;8.216;2022-07-23T08:11:18;1.20;;;0.80;;
1206;SDS011;593;53.184;8.216;2022-07-23T08:13:43;1.20;;;1.10;;
1206;SDS011;593;53.184;8.216;2022-07-23T08:16:09;0.83;;;0.83;;
1206;SDS011;593;53.184;8.216;2022-07-23T08:18:35;0.83;;;0.80;;
1206;SDS011;593;53.184;8.216;2022-07-23T08:21:01;1.70;;;0.80;;
1206;SDS011;593;53.184;8.216;2022-07-23T08:23:26;1.73;;;0.97;;
1206;SDS011;593;53.184;8.216;2022-07-23T08:25:52;1.20;;;0.90;;
1206;SDS011;593;53.184;8.216;2022-07-23T08:28:18;2.50;;;0.80;;
1206;SDS011;593;53.184;8.216;2022-07-23T08:30:43;1.10;;;0.87;;
1206;SDS011;593;53.184;8.216;2022-07-23T08:33:11;1.47;;;0.70;;
1206;SDS011;593;53.184;8.216;2022-07-23T08:35:39;0.70;;;0.60;;
1206;SDS011;593;53.184;8.216;2022-07-23T08:38:07;1.20;;;0.50;;
1206;SDS011;593;53.184;8.216;2022-07-23T08:40:35;0.70;;;0.70;;
1206;SDS011;593;53.184;8.216;2022-07-23T08:43:06;2.67;;;0.70;;
1206;SDS011;593;53.184;8.216;2022-07-23T08:45:37;0.60;;;0.50;;
1206;SDS011;593;53.184;8.216;2022-07-23T08:48:07;2.40;;;0.70;;
1206;SDS011;593;53.184;8.216;2022-07-23T08:50:34;0.80;;;0.70;;
1206;SDS011;593;53.184;8.216;2022-07-23T08:53:06;0.67;;;0.60;;
1206;SDS011;593;53.184;8.216;2022-07-23T08:55:32;0.70;;;0.60;;
1206;SDS011;593;53.184;8.216;2022-07-23T08:57:57;0.90;;;0.60;;
1206;SDS011;593;53.184;8.216;2022-07-23T09:00:23;0.80;;;0.50;;
1206;SDS011;593;53.184;8.216;2022-07-23T09:02:49;0.60;;;0.57;;
1206;SDS011;593;53.184;8.216;2022-07-23T09:05:16;0.87;;;0.57;;
1206;SDS011;593;53.184;8.216;2022-07-23T09:10:29;0.60;;;0.50;;
1206;SDS011;593;53.184;8.216;2022-07-23T09:12:56;0.70;;;0.50;;
1206;SDS011;593;53.184;8.216;2022-07-23T09:15:21;0.80;;;0.60;;
1206;SDS011;593;53.184;8.216;2022-07-23T09:17:47;1.17;;;0.60;;
1206;SDS011;593;53.184;8.216;2022-07-23T09:20:14;1.40;;;0.57;;
1206;SDS011;593;53.184;8.216;2022-07-23T09:22:47;1.33;;;0.60;;
1206;SDS011;593;53.184;8.216;2022-07-23T09:25:17;2.40;;;0.50;;
1206;SDS011;593;53.184;8.216;2022-07-23T09:27:57;1.13;;;0.60;;
1206;SDS011;593;53.184;8.216;2022-07-23T09:30:28;0.60;;;0.60;;
1206;SDS011;593;53.184;8.216;2022-07-23T09:33:04;1.57;;;0.60;;
1206;SDS011;593;53.184;8.216;2022-07-23T09:38:20;1.20;;;0.50;;
1206;SDS011;593;53.184;8.216;2022-07-23T09:40:46;1.30;;;0.60;;
1206;SDS011;593;53.184;8.216;2022-07-23T09:43:30;0.90;;;0.50;;
1206;SDS011;593;53.184;8.216;2022-07-23T09:46:16;0.77;;;0.53;;
1206;SDS011;593;53.184;8.216;2022-07-23T09:48:42;0.70;;;0.60;;
1206;SDS011;593;53.184;8.216;2022-07-23T09:51:07;1.63;;;0.60;;
1206;SDS011;593;53.184;8.216;2022-07-23T09:53:33;0.60;;;0.40;;
1206;SDS011;593;53.184;8.216;2022-07-23T09:55:58;0.70;;;0.50;;
1206;SDS011;593;53.184;8.216;2022-07-23T09:58:25;0.70;;;0.50;;
1206;SDS011;593;53.184;8.216;2022-07-23T10:00:53;1.03;;;0.50;;
1206;SDS011;593;53.184;8.216;2022-07-23T10:03:20;1.13;;;0.40;;
1206;SDS011;593;53.184;8.216;2022-07-23T10:05:46;0.80;;;0.70;;
1206;SDS011;593;53.184;8.216;2022-07-23T10:08:12;0.80;;;0.57;;
1206;SDS011;593;53.184;8.216;2022-07-23T10:10:39;0.60;;;0.40;;
1206;SDS011;593;53.184;8.216;2022-07-23T10:13:05;0.60;;;0.50;;
1206;SDS011;593;53.184;8.216;2022-07-23T10:16:02;0.60;;;0.47;;
1206;SDS011;593;53.184;8.216;2022-07-23T10:18:28;0.70;;;0.50;;
1206;SDS011;593;53.184;8.216;2022-07-23T10:20:55;0.90;;;0.50;;
1206;SDS011;593;53.184;8.216;2022-07-23T10:23:24;1.13;;;0.50;;
1206;SDS011;593;53.184;8.216;2022-07-23T10:31:49;1.53;;;0.50;;
1206;SDS011;593;53.184;8.216;2022-07-23T10:34:40;0.60;;;0.50;;
1206;SDS011;593;53.184;8.216;2022-07-23T10:37:17;1.03;;;0.90;;
1206;SDS011;593;53.184;8.216;2022-07-23T10:42:47;1.63;;;0.60;;
1206;SDS011;593;53.184;8.216;2022-07-23T10:45:32;0.70;;;0.50;;
1206;SDS011;593;53.184;8.216;2022-07-23T10:48:15;0.70;;;0.60;;
1206;SDS011;593;53.184;8.216;2022-07-23T10:53:52;0.70;;;0.40;;
1206;SDS011;593;53.184;8.216;2022-07-23T10:59:14;0.63;;;0.47;;
1206;SDS011;593;53.184;8.216;2022-07-23T11:01:39;1.10;;;0.50;;
1206;SDS011;593;53.184;8.216;2022-07-23T11:04:05;0.70;;;0.50;;
1206;SDS011;593;53.184;8.216;2022-07-23T11:09:24;0.70;;;0.50;;
1206;SDS011;593;53.184;8.216;2022-07-23T11:12:17;1.33;;;0.50;;
1206;SDS011;593;53.184;8.216;2022-07-23T11:17:23;0.60;;;0.40;;
1206;SDS011;593;53.184;8.216;2022-07-23T11:20:35;0.60;;;0.50;;
1206;SDS011;593;53.184;8.216;2022-07-23T11:25:09;0.80;;;0.60;;
1206;SDS011;593;53.184;8.216;2022-07-23T11:30:07;1.20;;;0.60;;
1206;SDS011;593;53.184;8.216;2022-07-23T11:32:37;0.73;;;0.50;;
1206;SDS011;593;53.184;8.216;2022-07-23T11:35:20;0.60;;;0.50;;
1206;SDS011;593;53.184;8.216;2022-07-23T11:37:46;0.60;;;0.50;;
1206;SDS011;593;53.184;8.216;2022-07-23T11:40:12;0.90;;;0.53;;
1206;SDS011;593;53.184;8.216;2022-07-23T11:42:40;0.60;;;0.50;;
1206;SDS011;593;53.184;8.216;2022-07-23T11:45:17;0.60;;;0.50;;
1206;SDS011;593;53.184;8.216;2022-07-23T11:47:42;1.00;;;0.60;;
1206;SDS011;593;53.184;8.216;2022-07-23T11:50:07;1.47;;;0.60;;
1206;SDS011;593;53.184;8.216;2022-07-23T11:52:33;0.70;;;0.60;;
1206;SDS011;593;53.184;8.216;2022-07-23T11:55:09;0.60;;;0.50;;
1206;SDS011;593;53.184;8.216;2022-07-23T11:57:36;1.57;;;0.90;;
1206;SDS011;593;53.184;8.216;2022-07-23T12:02:35;0.70;;;0.50;;
1206;SDS011;593;53.184;8.216;2022-07-23T12:05:02;0.70;;;0.60;;
1206;SDS011;593;53.184;8.216;2022-07-23T12:09:54;0.80;;;0.50;;
1206;SDS011;593;53.184;8.216;2022-07-23T12:12:20;0.60;;;0.50;;
1206;SDS011;593;53.184;8.216;2022-07-23T12:14:56;0.60;;;0.50;;
1206;SDS011;593;53.184;8.216;2022-07-23T12:17:29;0.70;;;0.50;;
1206;SDS011;593;53.184;8.216;2022-07-23T12:19:57;0.93;;;0.70;;
1206;SDS011;593;53.184;8.216;2022-07-23T12:22:24;0.60;;;0.50;;
1206;SDS011;593;53.184;8.216;2022-07-23T12:27:24;0.73;;;0.60;;
1206;SDS011;593;53.184;8.216;2022-07-23T12:29:50;0.60;;;0.50;;
1206;SDS011;593;53.184;8.216;2022-07-23T12:32:20;1.57;;;0.60;;
1206;SDS011;593;53.184;8.216;2022-07-23T12:34:45;0.60;;;0.50;;
1206;SDS011;593;53.184;8.216;2022-07-23T12:37:29;0.83;;;0.70;;
1206;SDS011;593;53.184;8.216;2022-07-23T12:39:55;1.23;;;0.60;;
1206;SDS011;593;53.184;8.216;2022-07-23T12:42:21;0.70;;;0.50;;
1206;SDS011;593;53.184;8.216;2022-07-23T12:45:05;0.93;;;0.73;;
1206;SDS011;593;53.184;8.216;2022-07-23T12:47:50;0.60;;;0.50;;
1206;SDS011;593;53.184;8.216;2022-07-23T12:56:05;2.43;;;0.60;;
1206;SDS011;593;53.184;8.216;2022-07-23T13:06:31;0.70;;;0.50;;
1206;SDS011;593;53.184;8.216;2022-07-23T13:08:58;0.70;;;0.60;;
1206;SDS011;593;53.184;8.216;2022-07-23T13:11:24;0.70;;;0.60;;
1206;SDS011;593;53.184;8.216;2022-07-23T13:13:51;2.20;;;1.13;;
1206;SDS011;593;53.184;8.216;2022-07-23T13:16:17;0.83;;;0.70;;
1206;SDS011;593;53.184;8.216;2022-07-23T13:18:42;1.20;;;0.60;;
1206;SDS011;593;53.184;8.216;2022-07-23T13:21:07;0.90;;;0.70;;
1206;SDS011;593;53.184;8.216;2022-07-23T13:23:33;0.80;;;0.60;;
1206;SDS011;593;53.184;8.216;2022-07-23T13:25:59;0.70;;;0.70;;
1206;SDS011;593;53.184;8.216;2022-07-23T13:28:24;1.00;;;0.60;;
1206;SDS011;593;53.184;8.216;2022-07-23T13:30:50;1.27;;;0.77;;
1206;SDS011;593;53.184;8.216;2022-07-23T13:33:17;1.23;;;0.60;;
1206;SDS011;593;53.184;8.216;2022-07-23T13:35:46;1.30;;;0.60;;
1206;SDS011;593;53.184;8.216;2022-07-23T13:38:12;0.70;;;0.50;;
1206;SDS011;593;53.184;8.216;2022-07-23T13:40:38;2.50;;;0.50;;
1206;SDS011;593;53.184;8.216;2022-07-23T13:43:07;0.70;;;0.60;;
1206;SDS011;593;53.184;8.216;2022-07-23T13:45:33;0.60;;;0.57;;
1206;SDS011;593;53.184;8.216;2022-07-23T13:47:59;1.20;;;0.60;;
1206;SDS011;593;53.184;8.216;2022-07-23T13:50:24;1.40;;;0.60;;
1206;SDS011;593;53.184;8.216;2022-07-23T13:52:50;0.80;;;0.50;;
1206;SDS011;593;53.184;8.216;2022-07-23T13:55:15;0.90;;;0.50;;
1206;SDS011;593;53.184;8.216;2022-07-23T13:57:41;1.20;;;0.60;;
1206;SDS011;593;53.184;8.216;2022-07-23T14:00:06;0.70;;;0.60;;
1206;SDS011;593;53.184;8.216;2022-07-23T14:02:34;1.33;;;0.60;;
1206;SDS011;593;53.184;8.216;2022-07-23T14:05:02;0.60;;;0.50;;
1206;SDS011;593;53.184;8.216;2022-07-23T14:07:28;0.60;;;0.60;;
1206;SDS011;593;53.184;8.216;2022-07-23T14:09:53;0.70;;;0.60;;
1206;SDS011;593;53.184;8.216;2022-07-23T14:12:18;0.63;;;0.60;;
1206;SDS011;593;53.184;8.216;2022-07-23T14:14:44;0.70;;;0.50;;
1206;SDS011;593;53.184;8.216;2022-07-23T14:17:10;0.83;;;0.60;;
1206;SDS011;593;53.184;8.216;2022-07-23T14:19:35;0.80;;;0.60;;
1206;SDS011;593;53.184;8.216;2022-07-23T14:22:00;0.60;;;0.57;;
1206;SDS011;593;53.184;8.216;2022-07-23T14:24:26;1.47;;;0.70;;
1206;SDS011;593;53.184;8.216;2022-07-23T14:26:51;0.73;;;0.60;;
1206;SDS011;593;53.184;8.216;2022-07-23T14:29:16;1.20;;;0.60;;
1206;SDS011;593;53.184;8.216;2022-07-23T14:31:42;0.70;;;0.70;;
1206;SDS011;593;53.184;8.216;2022-07-23T14:34:07;0.97;;;0.60;;
1206;SDS011;593;53.184;8.216;2022-07-23T14:36:32;0.70;;;0.60;;
1206;SDS011;593;53.184;8.216;2022-07-23T14:38:58;0.73;;;0.70;;
1206;SDS011;593;53.184;8.216;2022-07-23T14:41:23;0.70;;;0.60;;
1206;SDS011;593;53.184;8.216;2022-07-23T14:43:48;1.10;;;0.67;;
1206;SDS011;593;53.184;8.216;2022-07-23T14:46:13;1.23;;;0.53;;
1206;SDS011;593;53.184;8.216;2022-07-23T14:48:39;0.70;;;0.60;;
1206;SDS011;593;53.184;8.216;2022-07-23T14:51:04;0.73;;;0.60;;
1206;SDS011;593;53.184;8.216;2022-07-23T14:53:30;1.10;;;1.00;;
1206;SDS011;593;53.184;8.216;2022-07-23T14:55:55;1.07;;;0.60;;
1206;SDS011;593;53.184;8.216;2022-07-23T14:58:22;0.60;;;0.60;;
1206;SDS011;593;53.184;8.216;2022-07-23T15:00:49;1.07;;;0.90;;
1206;SDS011;593;53.184;8.216;2022-07-23T15:03:14;0.70;;;0.60;;
1206;SDS011;593;53.184;8.216;2022-07-23T15:05:40;0.60;;;0.60;;
1206;SDS011;593;53.184;8.216;2022-07-23T15:08:05;0.70;;;0.60;;
1206;SDS011;593;53.184;8.216;2022-07-23T15:10:30;0.93;;;0.70;;
1206;SDS011;593;53.184;8.216;2022-07-23T15:12:56;0.77;;;0.77;;
1206;SDS011;593;53.184;8.216;2022-07-23T15:15:21;1.63;;;0.70;;
1206;SDS011;593;53.184;8.216;2022-07-23T15:17:46;1.17;;;0.70;;
1206;SDS011;593;53.184;8.216;2022-07-23T15:20:12;1.43;;;0.63;;
1206;SDS011;593;53.184;8.216;2022-07-23T15:22:37;0.73;;;0.70;;
1206;SDS011;593;53.184;8.216;2022-07-23T15:25:03;1.27;;;0.70;;
1206;SDS011;593;53.184;8.216;2022-07-23T15:27:28;0.70;;;0.60;;
1206;SDS011;593;53.184;8.216;2022-07-23T15:29:54;0.80;;;0.73;;
1206;SDS011;593;53.184;8.216;2022-07-23T15:32:19;0.80;;;0.70;;
1206;SDS011;593;53.184;8.216;2022-07-23T15:34:44;1.70;;;0.60;;
1206;SDS011;593;53.184;8.216;2022-07-23T15:37:10;0.70;;;0.70;;
1206;SDS011;593;53.184;8.216;2022-07-23T15:39:35;0.70;;;0.67;;
1206;SDS011;593;53.184;8.216;2022-07-23T15:42:01;0.83;;;0.63;;
1206;SDS011;593;53.184;8.216;2022-07-23T15:44:27;1.57;;;0.80;;
1206;SDS011;593;53.184;8.216;2022-07-23T15:46:53;0.70;;;0.70;;
1206;SDS011;593;53.184;8.216;2022-07-23T15:49:20;1.27;;;0.73;;
1206;SDS011;593;53.184;8.216;2022-07-23T15:51:45;1.40;;;0.70;;
1206;SDS011;593;53.184;8.216;2022-07-23T15:54:10;2.03;;;0.80;;
1206;SDS011;593;53.184;8.216;2022-07-23T15:56:36;0.70;;;0.70;;
1206;SDS011;593;53.184;8.216;2022-07-23T15:59:01;0.90;;;0.90;;
1206;SDS011;593;53.184;8.216;2022-07-23T16:01:27;3.80;;;0.80;;
1206;SDS011;593;53.184;8.216;2022-07-23T16:03:55;0.70;;;0.60;;
1206;SDS011;593;53.184;8.216;2022-07-23T16:06:24;0.93;;;0.93;;
1206;SDS011;593;53.184;8.216;2022-07-23T16:08:50;0.90;;;0.70;;
1206;SDS011;593;53.184;8.216;2022-07-23T16:11:15;1.10;;;0.63;;
1206;SDS011;593;53.184;8.216;2022-07-23T16:13:41;1.77;;;0.93;;
1206;SDS011;593;53.184;8.216;2022-07-23T16:16:06;0.73;;;0.73;;
1206;SDS011;593;53.184;8.216;2022-07-23T16:18:33;0.80;;;0.80;;